Time;durP1;ratioP1;P1;durP2;ratioP2;P2;SDS_P1;SDS_P2;PMS_P1;PMS_P2;Temp;Humidity;BMP_temperature;BMP_pressure;BME280_temperature;BME280_humidity;BME280_pressure;Samples;Min_cycle;Max_cycle;Signal;HPM_P1;HPM_P2
2022/02/24 00:01:22;;;;;;;24.35;12.35;;;;;;;6.12;61.31;101769.19;5157221;27;20042;-72
2022/02/24 00:04:07;;;;;;;15.88;10.63;;;;;;;6.34;61.77;101769.06;5157343;27;20109;-71
2022/02/24 00:06:53;;;;;;;19.65;10.68;;;;;;;6.24;61.69;101766.31;5157326;27;20053;-71
2022/02/24 00:09:38;;;;;;;26.13;14.82;;;;;;;6.38;61.64;101762.06;5157142;27;20042;-71
2022/02/24 00:12:22;;;;;;;20.63;9.57;;;;;;;6.47;60.86;101759.69;5157195;27;20050;-72
2022/02/24 00:15:08;;;;;;;36.10;13.15;;;;;;;6.38;61.41;101764.78;5156992;27;20405;-71
2022/02/24 00:17:53;;;;;;;39.40;13.68;;;;;;;6.43;61.77;101759.41;5142317;27;20050;-73
2022/02/24 00:20:38;;;;;;;16.33;9.90;;;;;;;6.33;61.11;101765.56;5157150;27;20405;-72
2022/02/24 00:23:23;;;;;;;33.63;11.40;;;;;;;6.18;61.35;101748.44;5148414;27;20053;-71
2022/02/24 00:26:08;;;;;;;18.88;10.18;;;;;;;6.13;61.82;101751.13;5144893;27;20409;-71
2022/02/24 00:28:53;;;;;;;16.73;10.68;;;;;;;5.99;61.51;101753.44;5157433;27;20046;-71
2022/02/24 00:31:38;;;;;;;15.65;9.80;;;;;;;5.83;61.50;101749.78;5140521;27;20049;-72
2022/02/24 00:34:23;;;;;;;18.42;11.00;;;;;;;5.91;61.09;101751.22;5139241;27;20054;-72
2022/02/24 00:37:08;;;;;;;20.48;9.60;;;;;;;5.84;61.27;101754.09;5156560;27;20065;-71
2022/02/24 00:39:53;;;;;;;18.60;9.45;;;;;;;5.97;61.44;101747.50;5156735;27;20042;-71
2022/02/24 00:42:38;;;;;;;18.65;9.65;;;;;;;6.15;61.43;101751.66;5156869;27;20606;-71
2022/02/24 00:45:23;;;;;;;21.27;10.85;;;;;;;6.26;60.14;101750.66;5156237;27;20535;-71
2022/02/24 00:48:10;;;;;;;16.98;9.63;;;;;;;6.07;60.12;101744.03;5135971;27;20046;-71
2022/02/24 00:50:55;;;;;;;24.63;11.68;;;;;;;6.01;60.50;101749.41;5135708;27;20046;-72
2022/02/24 00:53:41;;;;;;;18.55;8.18;;;;;;;6.06;60.68;101754.03;5151966;27;20120;-72
2022/02/24 00:56:26;;;;;;;21.17;10.50;;;;;;;6.16;60.99;101745.19;5156250;27;20046;-71
2022/02/24 00:59:11;;;;;;;19.50;8.23;;;;;;;6.28;58.82;101745.81;5156446;27;20119;-71
2022/02/24 01:01:56;;;;;;;15.63;7.95;;;;;;;6.27;58.57;101744.19;5156408;27;20111;-71
2022/02/24 01:04:41;;;;;;;11.85;7.38;;;;;;;6.17;58.77;101738.72;5155999;27;20046;-71
2022/02/24 01:07:26;;;;;;;14.63;8.05;;;;;;;6.05;58.97;101727.28;5140454;27;20523;-72
2022/02/24 01:10:11;;;;;;;15.60;8.55;;;;;;;5.81;59.44;101729.50;5156141;27;20053;-70
2022/02/24 01:12:56;;;;;;;14.25;7.85;;;;;;;5.80;59.79;101727.88;5156263;27;20550;-71
2022/02/24 01:15:42;;;;;;;12.00;8.23;;;;;;;5.75;59.57;101730.53;5155885;27;20050;-70
2022/02/24 01:18:29;;;;;;;25.15;9.35;;;;;;;5.63;59.98;101725.34;5135178;27;20402;-70
2022/02/24 01:21:14;;;;;;;18.23;9.45;;;;;;;5.62;60.06;101714.81;5126534;27;20074;-72
2022/02/24 01:23:58;;;;;;;13.52;7.95;;;;;;;5.64;60.20;101718.06;5153699;27;20053;-73
2022/02/24 01:26:43;;;;;;;10.30;6.68;;;;;;;5.49;60.37;101716.03;5141348;27;20042;-71
2022/02/24 01:29:29;;;;;;;11.02;6.75;;;;;;;5.65;60.01;101719.66;5155821;27;20548;-71
2022/02/24 01:32:13;;;;;;;10.68;7.30;;;;;;;5.67;59.51;101712.97;5155527;27;20056;-72
2022/02/24 01:35:00;;;;;;;12.13;7.15;;;;;;;5.71;59.25;101714.06;5155100;27;20042;-73
2022/02/24 01:37:45;;;;;;;14.63;8.30;;;;;;;5.62;59.52;101704.81;5139114;27;20050;-72
2022/02/24 01:40:30;;;;;;;14.77;6.75;;;;;;;5.66;59.46;101705.94;5143232;27;20398;-71
2022/02/24 01:43:15;;;;;;;15.05;6.97;;;;;;;5.70;59.50;101700.81;5155273;27;20057;-71
2022/02/24 01:46:00;;;;;;;13.25;8.23;;;;;;;5.60;59.04;101696.16;5155011;27;20406;-71
2022/02/24 01:48:45;;;;;;;12.55;6.90;;;;;;;5.71;59.05;101702.44;5155230;27;20049;-72
2022/02/24 01:51:30;;;;;;;13.00;7.85;;;;;;;5.74;58.55;101691.94;5154985;27;20033;-71
2022/02/24 01:54:16;;;;;;;30.00;8.85;;;;;;;5.71;59.08;101692.47;5137238;27;21909;-71
2022/02/24 01:57:02;;;;;;;19.38;8.63;;;;;;;5.79;58.67;101680.41;5155517;27;20045;-72
2022/02/24 01:59:47;;;;;;;17.52;8.65;;;;;;;5.72;59.50;101688.72;5155631;27;20050;-74
2022/02/24 02:02:32;;;;;;;9.73;6.15;;;;;;;5.83;59.96;101679.63;5146428;27;20062;-73
2022/02/24 02:05:18;;;;;;;11.55;6.68;;;;;;;5.79;60.14;101683.88;5124551;27;20050;-74
2022/02/24 02:08:04;;;;;;;14.07;5.75;;;;;;;5.83;60.47;101687.72;5125407;27;20066;-72
2022/02/24 02:10:49;;;;;;;14.43;8.93;;;;;;;5.69;59.80;101689.22;5134360;27;20065;-72
2022/02/24 02:13:35;;;;;;;14.98;6.85;;;;;;;5.57;59.33;101694.00;5144591;27;20061;-72
2022/02/24 02:16:20;;;;;;;12.43;8.55;;;;;;;5.40;60.06;101696.81;5141705;27;20062;-72
2022/02/24 02:19:04;;;;;;;9.88;6.57;;;;;;;5.29;60.06;101681.59;5153199;27;20045;-72
2022/02/24 02:21:50;;;;;;;17.88;5.93;;;;;;;5.24;60.65;101684.25;5154649;27;20504;-71
2022/02/24 02:24:35;;;;;;;10.65;6.95;;;;;;;5.29;60.57;101684.28;5154592;27;20393;-72
2022/02/24 02:27:22;;;;;;;10.63;6.20;;;;;;;5.39;60.47;101691.66;5154434;27;20050;-72
2022/02/24 02:30:08;;;;;;;13.00;7.97;;;;;;;5.51;61.13;101687.75;5146760;27;20050;-71
2022/02/24 02:32:52;;;;;;;;;;;;;;;5.50;60.97;101691.50;5154752;27;20061;-72
2022/02/24 02:35:37;;;;;;;16.90;8.10;;;;;;;5.41;60.43;101678.75;5153815;27;19910;-72
2022/02/24 02:38:22;;;;;;;12.35;6.70;;;;;;;5.55;60.29;101677.25;5142828;27;20053;-73
2022/02/24 02:41:07;;;;;;;14.98;7.20;;;;;;;5.45;60.04;101682.56;5154337;27;20045;-71
2022/02/24 02:43:51;;;;;;;12.43;8.13;;;;;;;5.54;60.69;101678.31;5154078;27;20079;-73
2022/02/24 02:46:37;;;;;;;12.02;6.70;;;;;;;5.63;61.30;101681.34;5153804;27;20045;-72
2022/02/24 02:49:22;;;;;;;10.52;7.22;;;;;;;5.52;60.63;101673.19;5154167;27;20406;-73
2022/02/24 02:52:06;;;;;;;15.52;7.43;;;;;;;5.47;60.10;101681.25;5153993;27;20050;-71
2022/02/24 02:54:59;;;;;;;12.63;7.53;;;;;;;5.59;60.76;101679.16;5154020;27;20050;-71
2022/02/24 02:57:44;;;;;;;16.67;9.10;;;;;;;5.39;60.12;101675.47;5153519;27;20038;-72
2022/02/24 03:00:29;;;;;;;10.93;7.10;;;;;;;5.23;60.51;101666.47;5138603;27;20123;-73
2022/02/24 03:03:15;;;;;;;14.88;8.07;;;;;;;5.48;60.67;101665.88;5143167;27;20042;-72
2022/02/24 03:06:00;;;;;;;16.38;7.30;;;;;;;5.46;60.56;101665.31;5140646;27;20483;-72
2022/02/24 03:08:45;;;;;;;17.30;9.27;;;;;;;5.35;61.07;101666.28;5153816;27;20610;-71
2022/02/24 03:11:30;;;;;;;14.43;7.82;;;;;;;5.49;59.75;101667.47;5153907;27;20058;-72
2022/02/24 03:14:15;;;;;;;12.25;7.85;;;;;;;5.28;60.86;101663.81;5153628;27;20050;-72
2022/02/24 03:17:00;;;;;;;14.07;7.20;;;;;;;5.30;60.35;101660.84;5153663;27;20744;-71
2022/02/24 03:19:45;;;;;;;12.93;7.07;;;;;;;5.41;61.38;101659.88;5153826;27;20046;-71
2022/02/24 03:22:30;;;;;;;34.58;8.57;;;;;;;5.13;60.57;101656.38;5133037;27;20417;-71
2022/02/24 03:25:15;;;;;;;23.88;8.25;;;;;;;5.28;60.75;101657.63;5147270;27;20429;-71
2022/02/24 03:28:01;;;;;;;12.82;7.50;;;;;;;5.26;60.45;101657.03;5153108;27;20054;-71
2022/02/24 03:30:45;;;;;;;;;;;;;;;5.12;61.05;101662.88;5153992;27;20050;-71
2022/02/24 03:33:30;;;;;;;22.95;7.90;;;;;;;4.96;61.35;101665.66;5153570;27;19911;-72
2022/02/24 03:36:15;;;;;;;13.18;6.93;;;;;;;4.96;62.64;101668.34;5143072;27;20037;-72
2022/02/24 03:39:00;;;;;;;18.17;7.25;;;;;;;4.96;63.59;101663.78;5153466;27;20050;-71
2022/02/24 03:41:45;;;;;;;12.88;7.60;;;;;;;4.96;63.08;101674.56;5137145;27;20049;-71
2022/02/24 03:44:30;;;;;;;12.05;7.47;;;;;;;4.94;62.92;101668.59;5152940;27;20046;-71
2022/02/24 03:47:15;;;;;;;9.80;6.97;;;;;;;5.16;63.67;101668.56;5138316;27;20050;-70
2022/02/24 03:50:00;;;;;;;13.20;8.15;;;;;;;5.09;62.18;101666.06;5144584;27;20034;-71
2022/02/24 03:52:45;;;;;;;20.20;10.18;;;;;;;4.97;62.07;101664.59;5137596;27;20430;-72
2022/02/24 03:55:30;;;;;;;10.27;7.47;;;;;;;5.00;61.96;101658.69;5152907;27;20042;-72
2022/02/24 03:58:15;;;;;;;13.57;7.50;;;;;;;5.27;60.76;101658.69;5140090;27;20046;-71
2022/02/24 04:01:00;;;;;;;13.02;6.60;;;;;;;4.96;61.03;101653.00;5153330;27;20050;-71
2022/02/24 04:03:45;;;;;;;20.92;9.77;;;;;;;5.18;61.77;101661.03;5123891;27;20050;-70
2022/02/24 04:06:30;;;;;;;22.85;9.63;;;;;;;4.74;61.29;101660.31;5134178;27;20050;-71
2022/02/24 04:09:15;;;;;;;15.98;7.88;;;;;;;4.49;62.33;101660.84;5153415;27;20553;-71
2022/02/24 04:12:00;;;;;;;21.42;11.75;;;;;;;4.22;64.22;101670.72;5144304;27;20051;-72
2022/02/24 04:14:45;;;;;;;;;;;;;;;4.48;64.77;101669.97;5153688;27;20050;-72
2022/02/24 04:17:30;;;;;;;26.48;11.75;;;;;;;4.24;63.91;101664.03;5152544;27;19911;-71
2022/02/24 04:20:15;;;;;;;13.18;8.40;;;;;;;4.42;64.66;101664.81;5152760;27;20042;-71
2022/02/24 04:23:00;;;;;;;16.80;8.52;;;;;;;4.72;65.05;101659.75;5152988;27;20050;-72
2022/02/24 04:25:45;;;;;;;18.40;9.38;;;;;;;4.57;64.96;101665.75;5152590;27;20053;-72
2022/02/24 04:28:29;;;;;;;18.52;10.90;;;;;;;4.36;63.87;101663.09;5132348;28;20678;-70
2022/02/24 04:31:14;;;;;;;18.67;9.57;;;;;;;4.43;64.94;101652.94;5141286;27;20045;-72
2022/02/24 04:33:59;;;;;;;16.92;10.23;;;;;;;4.48;64.51;101653.00;5152730;27;20405;-71
2022/02/24 04:36:44;;;;;;;19.23;10.15;;;;;;;4.57;64.58;101656.91;5151826;27;20054;-73
2022/02/24 04:39:29;;;;;;;19.90;9.95;;;;;;;4.20;65.36;101648.63;5155940;27;20054;-72
2022/02/24 04:42:14;;;;;;;16.23;9.30;;;;;;;4.32;64.95;101643.91;5156617;27;20053;-70
2022/02/24 04:44:59;;;;;;;17.80;9.73;;;;;;;4.09;65.54;101647.69;5156548;27;20489;-71
2022/02/24 04:47:44;;;;;;;16.73;9.23;;;;;;;4.23;64.90;101640.88;5126642;27;20046;-71
2022/02/24 04:50:29;;;;;;;15.07;8.90;;;;;;;4.32;64.19;101635.06;5156592;27;20413;-71
2022/02/24 04:53:14;;;;;;;15.98;8.98;;;;;;;4.47;65.40;101638.72;5156411;27;20390;-71
2022/02/24 04:55:59;;;;;;;21.35;10.60;;;;;;;4.70;64.11;101632.25;5137886;27;20042;-71
2022/02/24 04:58:44;;;;;;;14.75;8.18;;;;;;;4.57;63.83;101632.66;5155899;27;20050;-73
2022/02/24 05:01:29;;;;;;;17.85;9.75;;;;;;;4.20;64.30;101633.31;5145215;27;20061;-71
2022/02/24 05:04:16;;;;;;;14.15;7.03;;;;;;;4.42;65.76;101635.97;5152368;27;20050;-71
2022/02/24 05:07:00;;;;;;;20.15;10.48;;;;;;;4.55;63.68;101630.22;5155500;27;20461;-70
2022/02/24 05:09:46;;;;;;;12.77;8.15;;;;;;;4.41;64.53;101626.28;5146840;27;20049;-71
2022/02/24 05:12:30;;;;;;;16.27;8.90;;;;;;;4.34;64.14;101631.03;5145025;27;20187;-71
2022/02/24 05:15:15;;;;;;;13.13;7.65;;;;;;;4.44;63.77;101614.19;5155786;27;20046;-72
2022/02/24 05:18:00;;;;;;;15.88;8.20;;;;;;;4.48;63.51;101618.81;5155815;27;20512;-73
2022/02/24 05:20:45;;;;;;;13.63;7.50;;;;;;;4.40;64.11;101618.44;5155610;27;20046;-72
2022/02/24 05:23:30;;;;;;;13.55;7.82;;;;;;;4.53;63.23;101615.34;5155874;27;20053;-72
2022/02/24 05:26:15;;;;;;;19.98;7.75;;;;;;;4.55;63.24;101618.63;5155305;27;20124;-73
2022/02/24 05:29:00;;;;;;;12.77;8.10;;;;;;;4.49;63.67;101620.44;5144661;27;20045;-74
2022/02/24 05:31:45;;;;;;;25.00;8.18;;;;;;;4.45;63.82;101621.19;5155565;27;20038;-73
2022/02/24 05:34:30;;;;;;;14.63;8.15;;;;;;;4.32;64.63;101620.50;5155545;27;20045;-74
2022/02/24 05:37:15;;;;;;;24.13;9.23;;;;;;;4.21;65.14;101607.19;5142327;27;20046;-72
2022/02/24 05:40:01;;;;;;;23.55;9.15;;;;;;;4.23;65.14;101611.25;5142944;27;20509;-73
2022/02/24 05:42:46;;;;;;;25.45;13.00;;;;;;;4.26;64.88;101610.78;5143283;27;20426;-74
2022/02/24 05:45:31;;;;;;;20.85;10.40;;;;;;;4.63;66.14;101616.28;5144907;27;20054;-72
2022/02/24 05:48:16;;;;;;;19.40;9.63;;;;;;;4.70;65.12;101610.69;5154674;27;20042;-72
2022/02/24 05:51:01;;;;;;;27.10;8.77;;;;;;;4.76;65.57;101615.06;5139656;27;20049;-71
2022/02/24 05:53:46;;;;;;;21.27;9.65;;;;;;;5.00;65.41;101613.69;5154758;27;20410;-71
2022/02/24 05:56:31;;;;;;;19.77;10.27;;;;;;;5.14;65.44;101611.38;5141958;27;20481;-71
2022/02/24 05:59:16;;;;;;;17.88;9.45;;;;;;;5.23;65.09;101603.66;5141082;27;20112;-72
2022/02/24 06:02:01;;;;;;;15.65;9.77;;;;;;;5.10;62.84;101603.00;5155093;27;20046;-71
2022/02/24 06:04:46;;;;;;;16.55;9.35;;;;;;;5.01;63.76;101607.22;5153674;27;20046;-70
2022/02/24 06:07:31;;;;;;;80.53;31.42;;;;;;;5.06;62.43;101604.59;5143708;27;20509;-71
2022/02/24 06:10:16;;;;;;;19.10;11.60;;;;;;;5.15;61.76;101597.66;5137596;27;20046;-71
2022/02/24 06:13:01;;;;;;;16.58;10.20;;;;;;;5.17;62.62;101610.88;5150586;27;20053;-72
2022/02/24 06:15:46;;;;;;;21.17;9.55;;;;;;;5.16;61.55;101599.28;5153418;27;20042;-70
2022/02/24 06:18:31;;;;;;;16.00;9.02;;;;;;;5.31;63.30;101605.84;5142308;27;20540;-73
2022/02/24 06:21:17;;;;;;;14.70;8.43;;;;;;;5.44;61.61;101597.31;5154659;27;20507;-70
2022/02/24 06:24:01;;;;;;;18.83;9.13;;;;;;;5.60;62.06;101599.03;5145518;27;20512;-71
2022/02/24 06:26:46;;;;;;;22.38;9.35;;;;;;;5.47;61.71;101597.63;5131995;27;20050;-70
2022/02/24 06:29:31;;;;;;;17.80;8.70;;;;;;;5.59;61.00;101597.41;5153979;27;20507;-72
2022/02/24 06:32:16;;;;;;;15.77;7.60;;;;;;;5.72;61.06;101602.38;5147985;27;20041;-71
2022/02/24 06:35:01;;;;;;;14.27;7.35;;;;;;;5.76;58.89;101598.06;5135579;27;20058;-72
2022/02/24 06:37:47;;;;;;;15.18;9.80;;;;;;;5.99;60.35;101596.88;5135761;27;20042;-72
2022/02/24 06:40:32;;;;;;;19.55;8.02;;;;;;;6.28;57.91;101599.97;5133552;27;20053;-71
2022/02/24 06:43:17;;;;;;;19.17;8.13;;;;;;;6.64;59.21;101593.59;5142568;27;20410;-72
2022/02/24 06:46:02;;;;;;;29.30;9.68;;;;;;;6.71;58.43;101598.72;5142028;27;20046;-73
2022/02/24 06:48:47;;;;;;;16.88;8.30;;;;;;;6.71;58.50;101602.22;5149354;27;20532;-74
2022/02/24 06:51:32;;;;;;;20.80;8.95;;;;;;;6.62;58.47;101600.31;5135215;27;20061;-72
2022/02/24 06:54:17;;;;;;;14.30;8.85;;;;;;;6.54;58.32;101604.38;5141987;27;20045;-73
2022/02/24 06:57:06;;;;;;;19.23;9.38;;;;;;;6.69;57.35;101603.59;5138197;27;20050;-72
2022/02/24 06:59:51;;;;;;;23.45;11.55;;;;;;;6.44;57.51;101605.16;5141684;27;20053;-72
2022/02/24 07:02:36;;;;;;;15.13;8.75;;;;;;;6.77;56.76;101603.06;5137384;27;20054;-73
2022/02/24 07:05:22;;;;;;;21.15;9.98;;;;;;;6.69;58.32;101609.00;5133179;27;20050;-71
2022/02/24 07:08:07;;;;;;;31.38;14.52;;;;;;;6.96;56.49;101601.44;5133257;27;20402;-75
2022/02/24 07:10:52;;;;;;;23.25;9.52;;;;;;;6.95;56.73;101613.38;5138850;27;20046;-74
2022/02/24 07:13:37;;;;;;;33.67;11.30;;;;;;;7.02;56.57;101613.09;5146607;27;20046;-73
2022/02/24 07:16:22;;;;;;;20.15;10.77;;;;;;;7.62;56.03;101612.25;5140762;27;20049;-74
2022/02/24 07:19:07;;;;;;;22.65;10.63;;;;;;;7.65;54.35;101609.81;5140704;27;20058;-74
2022/02/24 07:21:52;;;;;;;25.98;10.65;;;;;;;7.64;54.45;101607.38;5147555;27;20062;-74
2022/02/24 07:24:37;;;;;;;26.45;12.77;;;;;;;7.63;54.14;101617.38;5148907;27;20049;-74
2022/02/24 07:27:22;;;;;;;23.75;11.70;;;;;;;7.65;54.68;101604.41;5138864;27;20054;-74
2022/02/24 07:30:07;;;;;;;29.40;11.35;;;;;;;7.62;55.37;101604.94;5133007;27;20050;-74
2022/02/24 07:32:53;;;;;;;40.20;16.70;;;;;;;7.53;55.98;101601.16;5135318;27;20046;-74
2022/02/24 07:35:37;;;;;;;26.92;11.73;;;;;;;7.56;55.99;101599.81;5143473;27;20505;-74
2022/02/24 07:38:22;;;;;;;34.50;12.25;;;;;;;7.73;56.20;101601.13;5138145;27;20279;-74
2022/02/24 07:41:07;;;;;;;29.42;14.10;;;;;;;7.94;56.11;101601.06;5148345;27;20046;-74
2022/02/24 07:43:52;;;;;;;22.93;11.83;;;;;;;8.44;54.62;101591.94;5146065;27;20054;-75
2022/02/24 07:46:37;;;;;;;24.92;11.85;;;;;;;8.97;53.19;101592.97;5143768;27;20045;-72
2022/02/24 07:49:24;;;;;;;31.92;13.90;;;;;;;9.14;53.28;101587.16;5152519;27;20580;-72
2022/02/24 07:52:09;;;;;;;40.90;16.55;;;;;;;9.47;52.70;101596.34;5144625;27;20045;-73
2022/02/24 07:54:54;;;;;;;31.75;13.45;;;;;;;9.73;52.48;101595.00;5145513;27;20437;-73
2022/02/24 07:57:41;;;;;;;39.78;15.27;;;;;;;10.00;51.95;101597.97;5146466;27;20516;-73
2022/02/24 08:00:26;;;;;;;27.13;14.27;;;;;;;10.29;51.19;101584.31;5149235;27;20034;-73
2022/02/24 08:03:11;;;;;;;31.48;12.10;;;;;;;10.27;51.43;101594.66;5141531;27;20039;-73
2022/02/24 08:05:56;;;;;;;31.45;12.18;;;;;;;10.57;51.24;101588.00;5139028;27;20039;-73
2022/02/24 08:08:40;;;;;;;21.45;10.60;;;;;;;10.59;49.86;101574.94;5131836;28;20039;-72
2022/02/24 08:11:25;;;;;;;20.67;9.57;;;;;;;10.55;49.46;101585.59;5132385;28;20039;-71
2022/02/24 08:14:10;;;;;;;26.30;9.27;;;;;;;10.55;49.84;101587.50;5134832;27;20042;-72
2022/02/24 08:16:55;;;;;;;19.02;7.85;;;;;;;10.78;48.04;101581.16;5136438;27;20042;-73
2022/02/24 08:19:42;;;;;;;19.25;9.07;;;;;;;10.88;47.96;101581.03;5136506;27;20398;-72
2022/02/24 08:22:27;;;;;;;24.67;11.57;;;;;;;10.88;48.02;101581.03;5136364;27;20414;-72
2022/02/24 08:25:16;;;;;;;33.03;11.65;;;;;;;11.15;47.36;101583.03;5136033;27;20414;-72
2022/02/24 08:28:01;;;;;;;23.70;12.68;;;;;;;10.93;48.10;101574.69;5136247;27;20047;-73
2022/02/24 08:30:46;;;;;;;19.35;8.95;;;;;;;11.06;47.96;101577.47;5136401;27;20316;-73
2022/02/24 08:33:31;;;;;;;28.10;8.50;;;;;;;11.29;47.59;101580.34;5136107;27;20402;-72
2022/02/24 08:36:16;;;;;;;23.90;10.32;;;;;;;11.56;46.63;101572.25;5124058;27;20505;-73
2022/02/24 08:39:01;;;;;;;18.27;8.63;;;;;;;11.95;45.59;101578.06;5136356;27;20047;-73
2022/02/24 08:41:46;;;;;;;31.25;9.35;;;;;;;12.03;45.94;101564.84;5136031;27;20046;-71
2022/02/24 08:44:31;;;;;;;18.95;8.23;;;;;;;12.20;46.10;101570.47;5120420;27;20498;-72
2022/02/24 08:47:18;;;;;;;18.20;7.55;;;;;;;12.37;45.86;101557.81;5135952;27;20518;-73
2022/02/24 08:50:03;;;;;;;23.40;10.23;;;;;;;12.20;45.96;101565.00;5135898;27;20050;-72
2022/02/24 08:52:48;;;;;;;22.83;9.45;;;;;;;12.40;46.11;101567.28;5126128;27;20039;-72
2022/02/24 08:55:37;;;;;;;14.50;8.50;;;;;;;12.23;45.32;101558.97;5123948;27;20046;-73
2022/02/24 08:58:22;;;;;;;22.67;10.20;;;;;;;12.09;45.93;101560.91;5122184;27;20390;-72
2022/02/24 09:01:07;;;;;;;23.33;9.05;;;;;;;12.68;45.07;101552.47;5135647;27;20042;-71
2022/02/24 09:03:52;;;;;;;19.33;8.30;;;;;;;13.01;42.52;101542.13;5123891;27;20097;-75
2022/02/24 09:06:37;;;;;;;17.85;9.10;;;;;;;13.40;39.90;101535.16;5135409;27;20065;-74
2022/02/24 09:09:24;;;;;;;19.08;9.63;;;;;;;13.57;40.02;101540.69;5135344;27;20498;-74
2022/02/24 09:12:09;;;;;;;17.98;10.73;;;;;;;13.51;38.47;101536.50;5135454;27;20046;-72
2022/02/24 09:14:55;;;;;;;26.77;11.80;;;;;;;13.53;39.45;101521.38;5135166;27;20398;-73
2022/02/24 09:17:39;;;;;;;15.10;8.30;;;;;;;13.76;39.13;101513.13;5135088;27;20035;-73
2022/02/24 09:20:25;;;;;;;15.88;9.02;;;;;;;13.64;38.29;101517.25;5135263;27;20050;-73
2022/02/24 09:23:10;;;;;;;22.88;11.57;;;;;;;13.84;38.22;101512.34;5135141;27;20042;-72
2022/02/24 09:25:55;;;;;;;19.10;9.40;;;;;;;13.94;38.55;101520.25;5133608;27;20043;-72
2022/02/24 09:28:40;;;;;;;;;;;;;;;13.50;39.94;101521.22;5135538;27;20043;-72
2022/02/24 09:31:26;;;;;;;18.73;9.95;;;;;;;13.73;39.24;101517.28;5134738;27;19915;-72
2022/02/24 09:34:11;;;;;;;19.60;11.20;;;;;;;14.26;37.29;101513.53;5139796;27;20066;-72
2022/02/24 09:36:59;;;;;;;23.63;11.85;;;;;;;14.45;37.31;101505.84;5144271;27;20026;-73
2022/02/24 09:39:44;;;;;;;26.08;12.10;;;;;;;14.40;37.85;101517.78;5148295;27;20494;-72
2022/02/24 09:42:29;;;;;;;16.58;9.02;;;;;;;14.41;38.13;101513.91;5147581;27;20039;-73
2022/02/24 09:45:14;;;;;;;38.38;13.43;;;;;;;14.49;38.10;101510.38;5148258;27;20050;-72
2022/02/24 09:48:02;;;;;;;347.00;33.38;;;;;;;14.80;37.20;101504.72;5137548;27;20035;-72
2022/02/24 09:50:51;;;;;;;22.50;10.23;;;;;;;15.15;35.35;101510.13;5143207;27;20039;-74
2022/02/24 09:53:37;;;;;;;22.52;11.63;;;;;;;14.70;36.25;101515.19;5134305;27;20035;-74
2022/02/24 09:56:28;;;;;;;22.35;11.55;;;;;;;14.48;36.36;101500.53;5145612;27;20039;-74
2022/02/24 09:59:14;;;;;;;23.88;11.98;;;;;;;14.69;36.24;101503.44;5155176;27;20497;-74
2022/02/24 10:02:00;;;;;;;22.40;11.63;;;;;;;14.72;36.62;101502.81;5146671;27;20402;-74
2022/02/24 10:05:08;;;;;;;22.38;11.90;;;;;;;14.36;37.13;101511.34;5148484;27;20509;-72
2022/02/24 10:07:53;;;;;;;24.67;12.63;;;;;;;14.22;37.05;101513.38;5140085;27;20046;-72
2022/02/24 10:10:38;;;;;;;30.23;13.77;;;;;;;14.09;37.85;101512.38;5139098;27;20482;-73
2022/02/24 10:13:24;;;;;;;19.92;9.55;;;;;;;14.48;37.57;101499.72;5137041;27;20047;-73
2022/02/24 10:16:09;;;;;;;27.15;12.30;;;;;;;14.25;37.84;101501.78;5139041;27;20053;-73
2022/02/24 10:18:55;;;;;;;19.20;9.55;;;;;;;14.20;38.34;101496.47;5154662;27;20035;-72
2022/02/24 10:21:40;;;;;;;30.13;13.77;;;;;;;14.01;38.87;101498.72;5150726;27;20042;-73
2022/02/24 10:24:25;;;;;;;23.55;11.02;;;;;;;13.91;38.81;101493.53;5144836;27;20042;-73
2022/02/24 10:27:19;;;;;;;27.40;12.55;;;;;;;13.93;38.68;101500.28;5139913;27;20494;-74
2022/02/24 10:30:17;;;;;;;25.75;12.65;;;;;;;14.07;38.34;101497.41;5154579;27;20039;-74
2022/02/24 10:33:01;;;;;;;25.42;12.82;;;;;;;14.20;38.17;101499.22;5154899;27;20043;-72
2022/02/24 10:35:48;;;;;;;24.10;10.32;;;;;;;14.33;38.49;101487.31;5141781;27;20043;-73
2022/02/24 10:38:33;;;;;;;26.65;11.90;;;;;;;14.38;38.82;101483.63;5154434;27;20038;-73
2022/02/24 10:41:25;;;;;;;;;;;;;;;14.52;37.68;101468.69;5154808;27;20042;-74
2022/02/24 10:44:23;;;;;;;;;;;;;;;14.63;37.15;101463.66;5146229;27;19911;-73
2022/02/24 10:47:12;;;;;;;;;;;;;;;14.58;36.28;101474.78;5133784;27;19915;-73
2022/02/24 10:49:57;;;;;;;;;;;;;;;14.98;36.21;101467.16;5123169;27;20270;-73
2022/02/24 10:52:41;;;;;;;;;;;;;;;14.76;36.24;101464.63;5134023;27;19911;-72
2022/02/24 10:55:25;;;;;;;;;;;;;;;14.96;36.07;101466.66;5133282;27;20382;-74
2022/02/24 10:58:13;;;;;;;;;;;;;;;14.80;35.08;101465.56;5133835;27;19907;-73
2022/02/24 11:01:11;;;;;;;;;;;;;;;14.71;36.17;101459.31;5133867;27;20363;-74
2022/02/24 11:04:01;;;;;;;;;;;;;;;14.70;36.21;101454.97;5133431;27;19912;-73
2022/02/24 11:06:45;;;;;;;;;;;;;;;14.81;36.14;101450.75;5142025;27;19911;-73
2022/02/24 11:09:32;;;;;;;;;;;;;;;15.00;34.93;101451.19;5143852;27;19911;-74
2022/02/24 11:12:19;;;;;;;;;;;;;;;14.87;35.46;101443.97;5154221;27;19915;-73
2022/02/24 11:15:03;;;;;;;;;;;;;;;15.03;34.75;101434.13;5154047;27;19915;-73
2022/02/24 11:17:49;;;;;;;;;;;;;;;15.52;35.21;101437.31;5154327;27;20366;-75
2022/02/24 11:20:33;;;;;;;;;;;;;;;15.58;33.38;101428.56;5138854;27;19982;-72
2022/02/24 11:23:19;;;;;;;;;;;;;;;15.82;33.50;101431.47;5154037;27;19911;-74
2022/02/24 11:26:09;;;;;;;;;;;;;;;16.05;33.28;101423.72;5154086;27;20358;-73
2022/02/24 11:28:58;;;;;;;;;;;;;;;16.02;33.34;101421.66;5136327;27;19919;-72
2022/02/24 11:32:02;;;;;;;;;;;;;;;15.97;33.76;101415.56;5143181;27;20150;-73
2022/02/24 11:35:07;;;;;;;;;;;;;;;16.40;33.37;101413.28;5141435;27;19912;-73
2022/02/24 11:38:10;;;;;;;;;;;;;;;16.48;33.47;101403.34;5154123;27;19911;-73
2022/02/24 11:41:04;;;;;;;;;;;;;;;16.79;31.69;101394.66;5126717;27;19911;-73
2022/02/24 11:43:50;;;;;;;;;;;;;;;17.49;31.25;101393.41;5147008;27;19911;-73
2022/02/24 11:46:55;;;;;;;;;;;;;;;16.62;31.14;101381.91;5153794;27;19911;-75
2022/02/24 11:49:51;;;;;;;;;;;;;;;17.46;30.57;101372.13;5148552;27;19915;-73
2022/02/24 11:52:46;;;;;;;;;;;;;;;17.57;29.96;101373.25;5145798;27;19911;-75
2022/02/24 11:55:49;;;;;;;;;;;;;;;17.56;29.47;101374.41;5158018;27;19924;-72
2022/02/24 11:58:49;;;;;;;;;;;;;;;17.76;29.75;101367.16;5147819;27;20285;-72
2022/02/24 12:01:35;;;;;;;;;;;;;;;17.80;30.19;101351.56;5151211;27;19919;-74
2022/02/24 12:04:29;;;;;;;;;;;;;;;18.05;29.50;101355.03;5133990;27;19911;-74
2022/02/24 12:07:14;;;;;;;;;;;;;;;18.24;28.81;101350.47;5145585;27;19919;-74
2022/02/24 12:10:09;;;;;;;;;;;;;;;17.84;29.39;101344.22;5143732;27;19911;-74
2022/02/24 12:12:54;;;;;;;;;;;;;;;17.82;29.69;101343.78;5157867;27;19914;-74
2022/02/24 12:15:38;;;;;;;;;;;;;;;18.07;28.82;101341.75;5157587;27;20373;-74
2022/02/24 12:18:35;;;;;;;;;;;;;;;18.49;28.66;101350.38;5143213;27;20450;-74
2022/02/24 12:21:36;;;;;;;;;;;;;;;18.25;28.33;101346.56;5157759;27;19911;-73
2022/02/24 12:24:24;;;;;;;;;;;;;;;19.85;26.46;101331.22;5157624;27;20290;-73
2022/02/24 12:27:26;;;;;;;;;;;;;;;20.68;25.37;101318.59;5157470;27;19919;-74
2022/02/24 12:30:11;;;;;;;;;;;;;;;21.55;23.80;101321.16;5145420;27;19911;-74
2022/02/24 12:32:58;;;;;;;;;;;;;;;22.40;22.83;101307.56;5143223;27;19911;-73
2022/02/24 12:35:50;;;;;;;;;;;;;;;23.94;21.14;101305.44;5157275;27;19911;-74
2022/02/24 12:38:35;;;;;;;;;;;;;;;25.61;18.98;101286.81;5134874;27;19911;-72
2022/02/24 12:41:20;;;;;;;;;;;;;;;24.65;20.30;101284.97;5146948;27;19911;-73
2022/02/24 12:44:23;;;;;;;;;;;;;;;23.03;21.34;101285.94;5143921;27;19911;-73
2022/02/24 12:47:08;;;;;;;;;;;;;;;22.51;22.14;101283.47;5150982;27;19915;-73
2022/02/24 12:49:54;;;;;;;;;;;;;;;23.62;21.18;101277.56;5148864;27;20364;-74
2022/02/24 12:52:38;;;;;;;;;;;;;;;23.70;20.86;101273.63;5154686;27;19919;-72
2022/02/24 12:55:23;;;;;;;;;;;;;;;23.57;21.05;101266.84;5142051;27;19918;-76
2022/02/24 12:58:11;;;;;;;;;;;;;;;22.11;22.89;101251.84;5138550;27;19910;-73
2022/02/24 13:00:57;;;;;;;;;;;;;;;21.94;23.58;101254.44;5150847;27;19918;-73
2022/02/24 13:03:41;;;;;;;;;;;;;;;23.81;21.60;101244.72;5148836;27;19911;-73